Tiempo atmosférico en la estación meteorológica de Barbadillo, Salamanca (817 m.)

Fecha
DESCASC
Temp. máxima en grados centígrados (hora)
DESCASC
Temp. mínima en grados centígrados (hora)
DESCASC
Temp. media en grados centígrados
DESCASC
Racha de viento máxima en m/sg (hora)
DESCASC
Velocidad máxima media en intervalos de 10 minutos(hora)
DESCASC
Precipitaciones diarias en mm
DESCASC
Precipitaciones de 00:00 a 06:00 en mm
DESCASC
Precipitaciones de 06:00 a 12:00 en mm
DESCASC
Precipitaciones de 12:00 a 18:00 en mm
DESCASC
Precipitaciones de 18:00 a 24:00 en mm
DESCASC
17-09-2017 21 (16:50) 2.1 (08:30) 11.5 10.56 (16:10) 5.56 (17:20) 0 0 0 0 0
16-09-2017 19.2 (17:20) 2.3 (08:20) 10.8 8.61 (01:20) 5 (01:00) 0 0 0 0 0
15-09-2017 18.6 (17:30) 8.8 (08:00) 13.7 10.56 (10:00) 6.67 (10:50) 0 0 0 0 0
14-09-2017 26.5 (16:30) 11 (00:00) 18.8 11.11 (18:50) 5.56 (19:00) 0 0 0 0 0
13-09-2017 29.8 (16:40) 8.5 (00:00) 19.1 9.72 (16:50) 5.83 (17:10) 0 0 0 0 0
12-09-2017 24.8 (17:00) 9.7 (00:00) 17.2 7.78 (15:50) 4.44 (16:10) 0 0 0 0 0
11-09-2017 26.7 (17:50) 12 (00:00) 19.4 11.67 (15:30) 6.39 (15:10) 0 0 0 0 0
10-09-2017 23.5 (18:50) 3.8 (00:00) 13.6 10.56 (14:30) 3.89 (18:00) 0 0 0 0 0
09-09-2017 20.5 (17:00) 12.2 (00:00) 16.3 12.78 (17:50) 7.22 (18:10) 0 0 0 0 0
08-09-2017 29.4 (16:00) 6 (00:00) 17.7 11.39 (17:50) 6.11 (17:50) 0 0 0 0 0
07-09-2017 26.8 (17:40) 8.1 (00:00) 17.4 8.61 (13:40) 5.83 (00:10) 0 0 0 0 0
06-09-2017 28.7 (17:40) 11.5 (00:00) 20.1 10.56 (15:30) 6.11 (23:59) 0 0 0 0 0
05-09-2017 31.9 (17:00) 13.4 (00:00) 22.6 9.17 (17:20) 5 (17:50) 0 0 0 0 0
04-09-2017 28.5 (18:50) 12.4 (00:00) 20.4 6.39 (10:50) 3.61 (03:30) 0 0 0 0 0
03-09-2017 30.3 (16:30) 10.4 (00:00) 20.3 11.11 (17:10) 6.67 (18:10) 0 0 0 0 0
02-09-2017 27.3 (18:50) 9.1 (00:00) 18.2 9.44 (09:30) 6.94 (10:00) 0 0 0 0 0
01-09-2017 24.2 (16:50) 9.5 (00:00) 16.9 9.17 (13:50) 4.44 (13:00) 0 0 0 0 0
31-08-2017 24.5 (16:20) 14.1 (00:00) 19.3 7.5 (14:50) 4.72 (08:50) 0 0 0 0 0
30-08-2017 26.1 (16:40) 9.7 (00:00) 17.9 10 (16:50) 6.39 (19:20) 0 0 0 0 0
29-08-2017 23.2 (15:00) 11.5 (00:00) 17.4 9.44 (15:10) 6.11 (19:10) 0.2 0 0 0 0.2
28-08-2017 25.8 (15:30) 14.5 (00:00) 20.1 8.33 (17:50) 5.83 (17:50) 0.4 0.4 0 0 0
27-08-2017 27.8 (14:50) 16.4 (00:00) 22.1 13.33 (11:50) 9.17 (15:40) 8.2 2.8 5.4 0 0
26-08-2017 29.5 (15:50) 10.6 (00:00) 20.1 17.22 (16:30) 12.22 (16:30) 0 0 0 0 0
25-08-2017 31.8 (17:10) 8.6 (00:00) 20.2 10.28 (13:50) 5.56 (15:10) 0 0 0 0 0
24-08-2017 30.1 (16:50) 11.4 (00:00) 20.8 11.94 (15:50) 5.83 (15:50) 0 0 0 0 0
23-08-2017 35 (15:20) 13.9 (00:00) 24.4 13.33 (18:50) 6.94 (18:50) 0 0 0 0 0
22-08-2017 34.6 (16:50) 16.3 (00:00) 25.4 9.17 (15:00) 5 (16:00) 0 0 0 0 0

Gráficas

Temp. máximas Temp. mínimas Temp. medias Precipitaciones Rachas de viento máximas Velocidades máximas media en intervalos de 10 minutos

Datos horarios

Fecha y hora oficial Temperatura (ºC) Velocidad del viento (km/h) Dirección del viento Racha (km/h) Dirección de racha Precipitación (mm) Presión (hPa) Tendencia (hPa) Humedad (%)
2017-09-20 23:00:00 14.5 5 Sur 8 Sur 0 -- -- 42
2017-09-20 22:00:00 17.6 4 Sudeste 8 Sudoeste 0 -- -- 34
2017-09-20 21:00:00 20 6 Sur 10 Oeste 0 -- -- 29
2017-09-20 20:00:00 25.6 5 Oeste 20 Sudoeste 0 -- -- 22
2017-09-20 19:00:00 27.1 13 Oeste 21 Oeste 0 -- -- 21
2017-09-20 18:00:00 27.8 9 Oeste 25 Oeste 0 -- -- 19
2017-09-20 17:00:00 27.4 12 Oeste 24 Sudoeste 0 -- -- 20
2017-09-20 16:00:00 27.3 9 Oeste 24 Oeste 0 -- -- 21
2017-09-20 15:00:00 26 7 Norte 23 Noroeste 0 -- -- 24
2017-09-20 14:00:00 25.3 9 Este 20 Nordeste 0 -- -- 25
2017-09-20 13:00:00 23.6 6 Este 21 Este 0 -- -- 28
2017-09-20 12:00:00 21.6 11 Este 18 Este 0 -- -- 33
2017-09-20 11:00:00 17.1 4 Nordeste 12 Nordeste 0 -- -- 43
2017-09-20 10:00:00 11.4 0 Calma 4 Sur 0 -- -- 60
2017-09-20 09:00:00 5.2 3 Sur 5 Sur 0 -- -- 74
2017-09-20 08:00:00 4.3 4 Sur 7 Sur 0 -- -- 73
2017-09-20 07:00:00 4.9 2 Sur 8 Sur 0 -- -- 72
2017-09-20 06:00:00 5.5 4 Sur 8 Sur 0 -- -- 70
2017-09-20 05:00:00 5.9 6 Sur 8 Sur 0 -- -- 68
2017-09-20 04:00:00 6.3 3 Sudeste 6 Sur 0 -- -- 65
2017-09-20 03:00:00 7.2 4 Sur 5 Sur 0 -- -- 64
2017-09-20 02:00:00 8 3 Sur 5 Sur 0 -- -- 61
2017-09-20 01:00:00 8.9 4 Sur 7 Sur 0 -- -- 58
2017-09-20 00:00:00 10.1 4 Sur 8 Sur 0 -- -- 55
2017-09-19 23:00:00 12.6 4 Sur 5 Sudoeste 0 -- -- 51
2017-09-19 22:00:00 15.7 2 Sur 13 Este 0 -- -- 45
2017-09-19 21:00:00 19.1 10 Este 14 Este 0 -- -- 39
2017-09-19 20:00:00 22.5 4 Norte 10 Noroeste 0 -- -- 32
2017-09-19 19:00:00 23.6 3 Norte 12 Norte 0 -- -- 29
2017-09-19 18:00:00 24.1 8 Noroeste 16 Noroeste 0 -- -- 29
2017-09-19 17:00:00 23.6 7 Norte 15 Norte 0 -- -- 32
2017-09-19 16:00:00 23.5 5 Noroeste 16 Nordeste 0 -- -- 34
2017-09-19 15:00:00 21.9 8 Noroeste 19 Norte 0 -- -- 37
2017-09-19 14:00:00 20.9 3 Nordeste 17 Nordeste 0 -- -- 41
2017-09-19 13:00:00 19.9 7 Este 18 Nordeste 0 -- -- 45
2017-09-19 12:00:00 17.7 9 Este 15 Nordeste 0 -- -- 55
2017-09-19 11:00:00 14.6 11 Este 18 Este 0 -- -- 65
2017-09-19 10:00:00 9.8 3 Este 5 Este 0 -- -- 82
2017-09-19 09:00:00 4.9 3 Sur 6 Sur 0 -- -- 89
2017-09-19 08:00:00 4.4 2 Sudeste 6 Sur 0 -- -- 86
2017-09-19 07:00:00 5 5 Sur 6 Sur 0 -- -- 86
2017-09-19 06:00:00 5.6 3 Sur 6 Sur 0 -- -- 83
2017-09-19 05:00:00 6.3 4 Sur 6 Sur 0 -- -- 82
2017-09-19 04:00:00 6.9 5 Sur 10 Sur 0 -- -- 81
2017-09-19 03:00:00 7.4 6 Sur 9 Sur 0 -- -- 76
2017-09-19 02:00:00 8.7 0 Calma 6 Sur 0 -- -- 71
2017-09-19 01:00:00 9.3 5 Sur 9 Sur 0 -- -- 68
2017-09-19 00:00:00 10.4 5 Sur 6 Sur 0 -- -- 64
2017-09-18 23:00:00 12.4 3 Sur 6 Oeste 0 -- -- 59
2017-09-18 22:00:00 15.3 3 Oeste 13 Noroeste 0 -- -- 52
2017-09-18 21:00:00 17.6 6 Noroeste 17 Noroeste 0 -- -- 48
2017-09-18 20:00:00 19.7 10 Noroeste 23 Oeste 0 -- -- 43
2017-09-18 19:00:00 20.6 10 Noroeste 29 Noroeste 0 -- -- 40
2017-09-18 18:00:00 20.9 10 Noroeste 35 Noroeste 0 -- -- 41
2017-09-18 17:00:00 21.2 14 Noroeste 26 Noroeste 0 -- -- 40
2017-09-18 16:00:00 20.9 16 Oeste 29 Noroeste 0 -- -- 41
2017-09-18 15:00:00 20 14 Noroeste 33 Noroeste 0 -- -- 41
2017-09-18 14:00:00 18.4 13 Noroeste 36 Oeste 0 -- -- 49
2017-09-18 13:00:00 17.1 15 Oeste 33 Oeste 0 -- -- 54
2017-09-18 12:00:00 15.3 13 Noroeste 24 Noroeste 0 -- -- 62
2017-09-18 11:00:00 13.1 10 Oeste 22 Oeste 0 -- -- 70
2017-09-18 10:00:00 12.6 12 Oeste 21 Oeste 0 -- -- 71
2017-09-18 09:00:00 11.1 8 Sudoeste 16 Oeste 0 -- -- 75
2017-09-18 08:00:00 10.5 6 Sudoeste 15 Sudoeste 0 -- -- 76
2017-09-18 07:00:00 10.5 11 Sudoeste 19 Oeste 0 -- -- 75
2017-09-18 06:00:00 10.4 12 Oeste 18 Sudoeste 0 -- -- 75
2017-09-18 05:00:00 9.1 5 Sudoeste 14 Sudoeste 0 -- -- 76
2017-09-18 04:00:00 9.6 8 Sudoeste 16 Oeste 0 -- -- 72
2017-09-18 03:00:00 9.8 8 Sudoeste 13 Sudoeste 0 -- -- 67
2017-09-18 02:00:00 9.5 8 Sudoeste 11 Sudoeste 0 -- -- 64
2017-09-18 01:00:00 9 6 Sur 13 Sur 0 -- -- 57
2017-09-18 00:00:00 9.6 6 Sudoeste 12 Sudoeste 0 -- -- 54
2017-09-17 23:00:00 11 6 Sur 10 Sur 0 -- -- 47
2017-09-17 22:00:00 13.9 3 Sudoeste 13 Noroeste 0 -- -- 39
2017-09-17 21:00:00 16.7 6 Noroeste 21 Oeste 0 -- -- 35
2017-09-17 20:00:00 18.9 15 Noroeste 30 Oeste 0 -- -- 30
2017-09-17 19:00:00 20.4 17 Oeste 33 Oeste 0 -- -- 27
2017-09-17 18:00:00 20.9 17 Oeste 35 Oeste 0 -- -- 25
2017-09-17 17:00:00 20.8 18 Oeste 38 Oeste 0 -- -- 29
2017-09-17 16:00:00 20.4 18 Oeste 36 Oeste 0 -- -- 30
2017-09-17 15:00:00 18.9 18 Sudoeste 31 Sudoeste 0 -- -- 33
2017-09-17 14:00:00 17.8 17 Oeste 27 Oeste 0 -- -- 37
2017-09-17 13:00:00 16.9 16 Sudoeste 27 Sudoeste 0 -- -- 40
2017-09-17 12:00:00 15.2 10 Sudoeste 18 Oeste 0 -- -- 45
2017-09-17 11:00:00 13.3 9 Oeste 16 Oeste 0 -- -- 50
2017-09-17 10:00:00 9.4 0 Calma 4 Sudeste 0 -- -- 62
2017-09-17 09:00:00 3.6 2 Sudeste 5 Sudeste 0 -- -- 75
2017-09-17 08:00:00 2.3 4 Sur 6 Sudeste 0 -- -- 76
2017-09-17 07:00:00 2.8 4 Sudeste 6 Sur 0 -- -- 73
2017-09-17 06:00:00 3.2 3 Sur 6 Sudeste 0 -- -- 69
2017-09-17 05:00:00 3.5 4 Sur 8 Sur 0 -- -- 66
2017-09-17 04:00:00 4 4 Sur 6 Sudeste 0 -- -- 63
2017-09-17 03:00:00 4.5 4 Sur 10 Sur 0 -- -- 59
2017-09-17 02:00:00 5.6 4 Sur 8 Sur 0 -- -- 56
2017-09-17 01:00:00 6.3 5 Sur 7 Sur 0 -- -- 51
2017-09-17 00:00:00 7.8 5 Sudeste 8 Sudeste 0 -- -- 48
2017-09-16 23:00:00 8.7 0 Calma 8 Sur 0 -- -- 43
2017-09-16 22:00:00 10.8 6 Sur 11 Sur 0 -- -- 40
2017-09-16 21:00:00 15.2 0 Calma 10 Noroeste 0 -- -- 32
2017-09-16 20:00:00 17.5 5 Noroeste 17 Noroeste 0 -- -- 28
2017-09-16 19:00:00 18.6 11 Oeste 24 Noroeste 0 -- -- 24
2017-09-16 18:00:00 18.7 8 Oeste 27 Sudoeste 0 -- -- 28
2017-09-16 17:00:00 19 10 Oeste 23 Noroeste 0 -- -- 29
2017-09-16 16:00:00 17.8 10 Nordeste 20 Este 0 -- -- 34
2017-09-16 15:00:00 17.3 7 Noroeste 20 Nordeste 0 -- -- 37
2017-09-16 14:00:00 16.1 7 Norte 17 Nordeste 0 -- -- 40
2017-09-16 13:00:00 15.3 9 Nordeste 19 Nordeste 0 -- -- 43
2017-09-16 12:00:00 13.8 9 Nordeste 20 Nordeste 0 -- -- 49
2017-09-16 11:00:00 11.7 13 Este 20 Este 0 -- -- 58
2017-09-16 10:00:00 8.9 9 Este 13 Este 0 -- -- 67
2017-09-16 09:00:00 3.5 4 Sur 7 Sur 0 -- -- 83
2017-09-16 08:00:00 2.6 3 Sur 6 Sudoeste 0 -- -- 81
2017-09-16 07:00:00 4.5 2 Norte 6 Este 0 -- -- 76
2017-09-16 06:00:00 6 5 Este 15 Nordeste 0 -- -- 73
2017-09-16 05:00:00 7 9 Nordeste 18 Este 0 -- -- 70
2017-09-16 04:00:00 8.5 10 Nordeste 21 Nordeste 0 -- -- 64
2017-09-16 03:00:00 9.3 12 Nordeste 23 Nordeste 0 -- -- 61
2017-09-16 02:00:00 10.4 11 Nordeste 31 Este 0 -- -- 57
2017-09-16 01:00:00 11.3 18 Nordeste 31 Este 0 -- -- 55
2017-09-16 00:00:00 11.4 8 Nordeste 17 Norte 0 -- -- 51
2017-09-15 23:00:00 9.3 3 Nordeste 11 Nordeste 0 -- -- 48
2017-09-15 22:00:00 12.5 3 Sur 6 Este 0 -- -- 41
2017-09-15 21:00:00 15.2 4 Nordeste 19 Norte 0 -- -- 35
2017-09-15 20:00:00 17.2 9 Nordeste 23 Norte 0 -- -- 32
2017-09-15 19:00:00 18 8 Nordeste 23 Nordeste 0 -- -- 30
2017-09-15 18:00:00 17.8 10 Nordeste 30 Nordeste 0 -- -- 32
2017-09-15 17:00:00 18.5 10 Nordeste 33 Nordeste 0 -- -- 33
2017-09-15 16:00:00 17.8 12 Nordeste 30 Nordeste 0 -- -- 34
2017-09-15 15:00:00 17.3 12 Nordeste 31 Nordeste 0 -- -- 36
2017-09-15 14:00:00 16.9 19 Nordeste 36 Este 0 -- -- 38
2017-09-15 13:00:00 15.5 19 Nordeste 35 Nordeste 0 -- -- 43
2017-09-15 12:00:00 14 14 Nordeste 37 Nordeste 0 -- -- 48
2017-09-15 11:00:00 13 17 Nordeste 37 Nordeste 0 -- -- 51
2017-09-15 10:00:00 11.3 19 Nordeste 38 Nordeste 0 -- -- 57
2017-09-15 09:00:00 9.4 6 Norte 21 Este 0 -- -- 69
2017-09-15 08:00:00 8.8 6 Nordeste 21 Nordeste 0 -- -- 69
2017-09-15 07:00:00 9.1 12 Nordeste 23 Nordeste 0 -- -- 66
2017-09-15 06:00:00 9.4 12 Nordeste 27 Nordeste 0 -- -- 65
2017-09-15 05:00:00 9.6 8 Nordeste 23 Nordeste 0 -- -- 64
2017-09-15 04:00:00 10.2 13 Nordeste 30 Nordeste 0 -- -- 64
2017-09-15 03:00:00 11.5 12 Nordeste 26 Nordeste 0 -- -- 64
2017-09-15 02:00:00 14.4 8 Nordeste 21 Nordeste 0 -- -- 58
2017-09-15 01:00:00 15.3 7 Nordeste 14 Nordeste 0 -- -- 56
2017-09-15 00:00:00 17.2 6 Norte 21 Noroeste 0 -- -- 37
2017-09-14 23:00:00 18.9 12 Noroeste 21 Noroeste 0 -- -- 33
2017-09-14 22:00:00 20 10 Noroeste 18 Noroeste 0 -- -- 35
2017-09-14 21:00:00 21 10 Noroeste 21 Noroeste 0 -- -- 36
2017-09-14 20:00:00 23.1 14 Noroeste 27 Noroeste 0 -- -- 39
2017-09-14 19:00:00 24.6 20 Noroeste 40 Oeste 0 -- -- 33
2017-09-14 18:00:00 25.7 14 Oeste 28 Oeste 0 -- -- 38
2017-09-14 17:00:00 25.7 8 Oeste 21 Oeste 0 -- -- 37
2017-09-14 16:00:00 25.6 9 Norte 23 Noroeste 0 -- -- 36
2017-09-14 15:00:00 24.8 6 Sudoeste 18 Este 0 -- -- 38
2017-09-14 14:00:00 23.1 5 Sudeste 20 Este 0 -- -- 43
2017-09-14 13:00:00 21.4 6 Nordeste 15 Este 0 -- -- 48
2017-09-14 12:00:00 18.6 8 Noroeste 19 Noroeste 0 -- -- 58
2017-09-14 11:00:00 16.8 11 Noroeste 22 Oeste 0 -- -- 67
2017-09-14 10:00:00 15.4 11 Oeste 21 Oeste 0 -- -- 75
2017-09-14 09:00:00 13.4 10 Oeste 18 Oeste 0 -- -- 86
2017-09-14 08:00:00 12 5 Sudoeste 12 Oeste 0 -- -- 86
2017-09-14 07:00:00 11.1 6 Sudoeste 9 Sudoeste 0 -- -- 83
2017-09-14 06:00:00 11.5 5 Sur 9 Sudoeste 0 -- -- 77
2017-09-14 05:00:00 12.6 4 Sur 10 Sur 0 -- -- 73
2017-09-14 04:00:00 13.8 2 Sur 9 Sudoeste 0 -- -- 67
2017-09-14 03:00:00 15 4 Sudoeste 9 Sudoeste 0 -- -- 64
2017-09-14 02:00:00 15.7 4 Sudoeste 6 Sudoeste 0 -- -- 57
2017-09-14 01:00:00 16.6 4 Sudoeste 6 Sudoeste 0 -- -- 53
2017-09-14 00:00:00 18 5 Sudoeste 9 Oeste 0 -- -- 47
2017-09-13 23:00:00 19.9 7 Oeste 16 Oeste 0 -- -- 42
2017-09-13 22:00:00 20.2 6 Sur 9 Sur 0 -- -- 38
2017-09-13 21:00:00 24.6 5 Sur 21 Oeste 0 -- -- 31
2017-09-13 20:00:00 27.7 12 Noroeste 24 Oeste 0 -- -- 28
2017-09-13 19:00:00 29.2 14 Oeste 29 Oeste 0 -- -- 26
2017-09-13 18:00:00 29.8 17 Oeste 35 Oeste 0 -- -- 24
2017-09-13 17:00:00 29.8 18 Oeste 35 Oeste 0 -- -- 25
2017-09-13 16:00:00 29.3 16 Sudoeste 29 Oeste 0 -- -- 27
2017-09-13 15:00:00 28 15 Oeste 28 Oeste 0 -- -- 32
2017-09-13 14:00:00 27 12 Noroeste 27 Oeste 0 -- -- 36
2017-09-13 13:00:00 26.1 9 Sudoeste 19 Oeste 0 -- -- 38
2017-09-13 12:00:00 23.5 5 Este 10 Nordeste 0 -- -- 46
2017-09-13 11:00:00 21 5 Sudeste 11 Este 0 -- -- 53
2017-09-13 10:00:00 15.6 2 Este 5 Sur 0 -- -- 70
2017-09-13 09:00:00 10.1 3 Sur 4 Sur 0 -- -- 84
2017-09-13 08:00:00 8.6 0 Calma 6 Sur 0 -- -- 84
2017-09-13 07:00:00 9.3 4 Sur 6 Sur 0 -- -- 82
2017-09-13 06:00:00 10 0 Calma 5 Sur 0 -- -- 80
2017-09-13 05:00:00 10.5 4 Sur 9 Sur 0 -- -- 80
2017-09-13 04:00:00 11.2 4 Sudoeste 10 Sur 0 -- -- 77
2017-09-13 03:00:00 11.8 7 Sur 9 Sur 0 -- -- 75
2017-09-13 02:00:00 12.8 5 Sur 9 Sur 0 -- -- 70
2017-09-13 01:00:00 13.5 7 Sur 9 Sur 0 -- -- 67
2017-09-13 00:00:00 14.6 3 Sudoeste 9 Sur 0 -- -- 63
2017-09-12 23:00:00 16.2 5 Sur 9 Sur 0 -- -- 58
2017-09-12 22:00:00 18.6 3 Sur 7 Sudeste 0 -- -- 51
2017-09-12 21:00:00 21.7 5 Noroeste 14 Oeste 0 -- -- 47
2017-09-12 20:00:00 23.8 9 Noroeste 23 Noroeste 0 -- -- 41
2017-09-12 19:00:00 24.4 11 Noroeste 23 Noroeste 0 -- -- 40
2017-09-12 18:00:00 24.6 11 Noroeste 26 Oeste 0 -- -- 39
2017-09-12 17:00:00 24.8 15 Oeste 28 Noroeste 0 -- -- 38
2017-09-12 16:00:00 24.1 8 Noroeste 28 Noroeste 0 -- -- 40
2017-09-12 15:00:00 23.3 7 Noroeste 26 Oeste 0 -- -- 42
2017-09-12 14:00:00 22.3 5 Oeste 18 Noroeste 0 -- -- 44
2017-09-12 13:00:00 20.5 10 Oeste 18 Oeste 0 -- -- 48
2017-09-12 12:00:00 18.8 4 Sudoeste 10 Sur 0 -- -- 54
2017-09-12 11:00:00 16.4 3 Noroeste 10 Noroeste 0 -- -- 64
2017-09-12 10:00:00 14 4 Oeste 8 Oeste 0 -- -- 73
2017-09-12 09:00:00 10.4 4 Sur 8 Sur 0 -- -- 82
2017-09-12 08:00:00 10.2 4 Sur 9 Sudeste 0 -- -- 79
2017-09-12 07:00:00 11.4 3 Sur 7 Sur 0 -- -- 77
2017-09-12 06:00:00 12.2 4 Oeste 8 Oeste 0 -- -- 73
2017-09-12 05:00:00 13.3 4 Noroeste 14 Oeste 0 -- -- 69
2017-09-12 04:00:00 13.9 10 Oeste 19 Oeste 0 -- -- 67
2017-09-12 03:00:00 14.6 8 Sudoeste 19 Oeste 0 -- -- 64
2017-09-12 02:00:00 16.4 12 Oeste 22 Oeste 0 -- -- 56
2017-09-12 01:00:00 17.2 10 Oeste 20 Noroeste 0 -- -- 53
2017-09-12 00:00:00 18.5 7 Oeste 15 Noroeste 0 -- -- 51
2017-09-11 23:00:00 19.6 9 Oeste 15 Oeste 0 -- -- 47
2017-09-11 22:00:00 20.6 10 Noroeste 16 Noroeste 0 -- -- 43
2017-09-11 21:00:00 22.8 12 Noroeste 31 Oeste 0 -- -- 40
2017-09-11 20:00:00 24.9 15 Noroeste 31 Noroeste 0 -- -- 38
2017-09-11 19:00:00 25.8 17 Noroeste 39 Noroeste 0 -- -- 37
2017-09-11 18:00:00 26.6 17 Oeste 38 Oeste 0 -- -- 36
2017-09-11 17:00:00 26.1 23 Noroeste 39 Oeste 0 -- -- 37
2017-09-11 16:00:00 26.1 20 Oeste 42 Oeste 0 -- -- 38
2017-09-11 15:00:00 25.6 18 Oeste 35 Oeste 0 -- -- 39
2017-09-11 14:00:00 24.2 15 Oeste 31 Oeste 0 -- -- 45
2017-09-11 13:00:00 22.5 15 Oeste 32 Oeste 0 -- -- 51
2017-09-11 12:00:00 20.4 15 Oeste 33 Oeste 0 -- -- 60
2017-09-11 11:00:00 18.2 12 Oeste 25 Oeste 0 -- -- 70
2017-09-11 10:00:00 15.6 12 Oeste 22 Oeste 0 -- -- 80
2017-09-11 09:00:00 12.8 5 Sudoeste 10 Sudoeste 0 -- -- 88
2017-09-11 08:00:00 12.1 6 Sudoeste 10 Sudoeste 0 -- -- 88
2017-09-11 07:00:00 12.3 6 Sur 10 Sudoeste 0 -- -- 88
2017-09-11 06:00:00 13 8 Sur 16 Sudoeste 0 -- -- 83
2017-09-11 05:00:00 13.9 8 Sudoeste 16 Oeste 0 -- -- 81
2017-09-11 04:00:00 13.8 7 Oeste 17 Oeste 0 -- -- 82
2017-09-11 03:00:00 14 8 Sudoeste 12 Sur 0 -- -- 76
2017-09-11 02:00:00 14.3 4 Sudoeste 12 Sudoeste 0 -- -- 70
2017-09-11 01:00:00 15.4 10 Sudoeste 13 Sur 0 -- -- 60
2017-09-11 00:00:00 16.1 4 Sudoeste 10 Sudoeste 0 -- -- 58
2017-09-10 23:00:00 15.8 8 Sur 9 Sur 0 -- -- 46
2017-09-10 22:00:00 18.6 4 Sudoeste 17 Noroeste 0 -- -- 39
2017-09-10 21:00:00 20.4 9 Oeste 22 Oeste 0 -- -- 36
2017-09-10 20:00:00 22.6 9 Noroeste 22 Noroeste 0 -- -- 30
2017-09-10 19:00:00 23.4 13 Oeste 21 Noroeste 0 -- -- 29
2017-09-10 18:00:00 23.1 14 Noroeste 24 Oeste 0 -- -- 26
2017-09-10 17:00:00 22 12 Noroeste 23 Noroeste 0 -- -- 26
2017-09-10 16:00:00 21.7 5 Noroeste 22 Noroeste 0 -- -- 29
2017-09-10 15:00:00 20.4 10 Norte 38 Sur 0 -- -- 35
2017-09-10 14:00:00 18.4 6 Noroeste 15 Nordeste 0 -- -- 40
2017-09-10 13:00:00 16.9 5 Este 20 Este 0 -- -- 42
2017-09-10 12:00:00 15 8 Norte 21 Nordeste 0 -- -- 49
2017-09-10 11:00:00 13.2 9 Norte 18 Norte 0 -- -- 57
2017-09-10 10:00:00 10.5 2 Oeste 6 Sudoeste 0 -- -- 70
2017-09-10 09:00:00 5.2 6 Sur 9 Sur 0 -- -- 84
2017-09-10 08:00:00 4 5 Sudoeste 8 Sur 0 -- -- 84
2017-09-10 07:00:00 4.4 6 Sur 9 Sur 0 -- -- 82
2017-09-10 06:00:00 5.3 3 Sudoeste 10 Sur 0 -- -- 79
2017-09-10 05:00:00 6.4 3 Sudoeste 8 Sudeste 0 -- -- 74
2017-09-10 04:00:00 7.5 6 Sudoeste 10 Sudoeste 0 -- -- 71
2017-09-10 03:00:00 8.4 8 Sur 11 Sur 0 -- -- 67
2017-09-10 02:00:00 10.4 3 Sur 14 Noroeste 0 -- -- 60
2017-09-10 01:00:00 12 6 Noroeste 21 Noroeste 0 -- -- 55
2017-09-10 00:00:00 12.5 8 Noroeste 15 Noroeste 0 -- -- 55
2017-09-09 23:00:00 13.8 4 Sudoeste 20 Noroeste 0 -- -- 49
2017-09-09 22:00:00 15.4 10 Noroeste 27 Oeste 0 -- -- 43
2017-09-09 21:00:00 16.7 14 Noroeste 40 Noroeste 0 -- -- 44
2017-09-09 20:00:00 18.8 21 Noroeste 41 Noroeste 0 -- -- 41
2017-09-09 19:00:00 19.6 24 Noroeste 42 Noroeste 0 -- -- 34
2017-09-09 18:00:00 20.1 24 Noroeste 46 Oeste 0 -- -- 32
2017-09-09 17:00:00 20.5 19 Noroeste 39 Noroeste 0 -- -- 34
2017-09-09 16:00:00 19.9 22 Noroeste 44 Noroeste 0 -- -- 39
2017-09-09 15:00:00 19.8 22 Noroeste 43 Noroeste 0 -- -- 40
2017-09-09 14:00:00 18.8 20 Noroeste 40 Oeste 0 -- -- 44
2017-09-09 13:00:00 17.7 19 Noroeste 41 Oeste 0 -- -- 47
2017-09-09 12:00:00 17.5 20 Oeste 35 Noroeste 0 -- -- 46
2017-09-09 11:00:00 15.3 24 Noroeste 40 Oeste 0 -- -- 59
2017-09-09 10:00:00 14.3 18 Oeste 33 Oeste 0 -- -- 76
2017-09-09 09:00:00 13.5 17 Oeste 28 Oeste 0 -- -- 81
2017-09-09 08:00:00 13.3 15 Oeste 28 Sudoeste 0 -- -- 81
2017-09-09 07:00:00 13.2 16 Oeste 31 Oeste 0 -- -- 81
2017-09-09 06:00:00 13.4 20 Oeste 32 Oeste 0 -- -- 77
2017-09-09 05:00:00 14.4 18 Oeste 32 Oeste 0 -- -- 64
2017-09-09 04:00:00 15 18 Oeste 36 Oeste 0 -- -- 52
2017-09-09 03:00:00 15.6 13 Sudoeste 24 Sudoeste 0 -- -- 47
2017-09-09 02:00:00 16.6 13 Sudoeste 22 Sudoeste 0 -- -- 41
2017-09-09 01:00:00 17.8 14 Sudoeste 24 Oeste 0 -- -- 33
2017-09-09 00:00:00 18.6 14 Sudoeste 20 Sudoeste 0 -- -- 33
2017-09-08 23:00:00 19.5 10 Sudoeste 18 Oeste 0 -- -- 31
2017-09-08 22:00:00 21.4 8 Sudoeste 20 Oeste 0 -- -- 24
2017-09-08 21:00:00 24.2 8 Oeste 22 Oeste 0 -- -- 18
2017-09-08 20:00:00 26.8 12 Noroeste 28 Oeste 0 -- -- 17
2017-09-08 19:00:00 28 14 Oeste 36 Oeste 0 -- -- 16
2017-09-08 18:00:00 28.9 18 Oeste 41 Oeste 0 -- -- 14
2017-09-08 17:00:00 29.3 20 Oeste 33 Oeste 0 -- -- 15
2017-09-08 16:00:00 29.4 14 Oeste 31 Oeste 0 -- -- 16
2017-09-08 15:00:00 28.3 15 Oeste 32 Oeste 0 -- -- 18
2017-09-08 14:00:00 27.2 16 Oeste 32 Sudoeste 0 -- -- 21
2017-09-08 13:00:00 25.9 13 Oeste 23 Oeste 0 -- -- 24
2017-09-08 12:00:00 22.7 7 Oeste 13 Oeste 0 -- -- 27
2017-09-08 11:00:00 17.8 4 Norte 8 Noroeste 0 -- -- 39
2017-09-08 10:00:00 13.4 0 Calma 6 Sur 0 -- -- 50
2017-09-08 09:00:00 7.6 4 Sur 8 Sur 0 -- -- 65
2017-09-08 08:00:00 6 5 Sur 8 Sur 0 -- -- 67
2017-09-08 07:00:00 6.5 2 Sur 6 Sur 0 -- -- 64
2017-09-08 06:00:00 7 6 Sur 8 Sur 0 -- -- 64
2017-09-08 05:00:00 7.6 3 Sur 5 Sudeste 0 -- -- 61
2017-09-08 04:00:00 8.4 2 Sur 5 Sur 0 -- -- 58
2017-09-08 03:00:00 9.4 2 Sur 7 Sur 0 -- -- 55
2017-09-08 02:00:00 10.3 6 Sur 8 Sur 0 -- -- 52
2017-09-08 01:00:00 10.8 8 Sur 11 Sur 0 -- -- 49
2017-09-08 00:00:00 12 6 Sur 10 Sur 0 -- -- 46
2017-09-07 23:00:00 13.7 5 Sur 8 Sur 0 -- -- 42
2017-09-07 22:00:00 16.7 6 Sur 9 Sur 0 -- -- 36
2017-09-07 21:00:00 21.7 0 Calma 8 Este 0 -- -- 32
2017-09-07 20:00:00 25.4 6 Este 16 Este 0 -- -- 24
2017-09-07 19:00:00 26.3 8 Nordeste 20 Este 0 -- -- 22
2017-09-07 18:00:00 26.7 12 Este 22 Este 0 -- -- 22
2017-09-07 17:00:00 26.4 11 Nordeste 27 Este 0 -- -- 22
2017-09-07 16:00:00 25.5 15 Este 30 Nordeste 0 -- -- 24
2017-09-07 15:00:00 24.4 18 Este 31 Este 0 -- -- 24
2017-09-07 14:00:00 22.9 17 Este 31 Nordeste 0 -- -- 25
2017-09-07 13:00:00 20.9 18 Nordeste 30 Este 0 -- -- 30
2017-09-07 12:00:00 17.9 17 Este 25 Este 0 -- -- 47
2017-09-07 11:00:00 14.7 14 Este 22 Este 0 -- -- 63
2017-09-07 10:00:00 12.1 13 Este 20 Nordeste 0 -- -- 76
2017-09-07 09:00:00 8.9 4 Nordeste 9 Nordeste 0 -- -- 88
2017-09-07 08:00:00 8.4 3 Este 9 Este 0 -- -- 87
2017-09-07 07:00:00 9.1 5 Este 9 Este 0 -- -- 83
2017-09-07 06:00:00 10.3 4 Nordeste 11 Este 0 -- -- 78
2017-09-07 05:00:00 11.9 8 Nordeste 23 Nordeste 0 -- -- 74
2017-09-07 04:00:00 13.4 12 Nordeste 22 Este 0 -- -- 69
2017-09-07 03:00:00 14.8 10 Nordeste 25 Nordeste 0 -- -- 66
2017-09-07 02:00:00 16.2 14 Nordeste 25 Nordeste 0 -- -- 65
2017-09-07 01:00:00 17.4 18 Este 30 Este 0 -- -- 58
2017-09-07 00:00:00 18.9 22 Este 29 Este 0 -- -- 54
2017-09-06 23:00:00 20.9 14 Este 32 Este 0 -- -- 48
2017-09-06 22:00:00 22.5 9 Nordeste 23 Norte 0 -- -- 46
2017-09-06 21:00:00 24.5 13 Norte 28 Nordeste 0 -- -- 41
2017-09-06 20:00:00 26.9 11 Norte 22 Norte 0 -- -- 38
2017-09-06 19:00:00 28.3 8 Norte 22 Norte 0 -- -- 34
2017-09-06 18:00:00 28.4 11 Norte 23 Norte 0 -- -- 37
2017-09-06 17:00:00 28.3 12 Norte 23 Norte 0 -- -- 38
2017-09-06 16:00:00 27.9 12 Norte 38 Este 0 -- -- 41
2017-09-06 15:00:00 27.2 14 Nordeste 32 Este 0 -- -- 42
2017-09-06 14:00:00 25.7 14 Nordeste 27 Nordeste 0 -- -- 46
2017-09-06 13:00:00 24.1 15 Nordeste 28 Nordeste 0 -- -- 51
2017-09-06 12:00:00 22.3 12 Nordeste 24 Nordeste 0 -- -- 53
2017-09-06 11:00:00 20 10 Nordeste 24 Nordeste 0 -- -- 56
2017-09-06 10:00:00 18.2 12 Nordeste 22 Nordeste 0 -- -- 60
2017-09-06 09:00:00 12.7 0 Calma 4 Sur 0 -- -- 77
2017-09-06 08:00:00 11.8 2 Sur 5 Nordeste 0 -- -- 72
2017-09-06 07:00:00 12.8 4 Nordeste 8 Este 0 -- -- 77
2017-09-06 06:00:00 11.8 0 Calma 6 Sur 0 -- -- 68
2017-09-06 05:00:00 12.5 4 Sur 6 Sur 0 -- -- 64
2017-09-06 04:00:00 13.4 0 Calma 5 Sur 0 -- -- 61
2017-09-06 03:00:00 14.3 3 Sudeste 9 Sur 0 -- -- 57
2017-09-06 02:00:00 14.8 5 Sur 9 Sur 0 -- -- 54
2017-09-06 01:00:00 15.2 4 Sur 6 Sur 0 -- -- 51
2017-09-06 00:00:00 17.2 4 Sur 6 Sur 0 -- -- 45
2017-09-05 23:00:00 19.5 3 Sur 6 Sur 0 -- -- 40
2017-09-05 22:00:00 23.5 2 Sudoeste 11 Oeste 0 -- -- 33
2017-09-05 21:00:00 27.2 5 Noroeste 22 Noroeste 0 -- -- 28
2017-09-05 20:00:00 30 9 Noroeste 24 Noroeste 0 -- -- 24
2017-09-05 19:00:00 30.5 13 Noroeste 26 Oeste 0 -- -- 24
2017-09-05 18:00:00 31.2 15 Noroeste 33 Oeste 0 -- -- 28
2017-09-05 17:00:00 31.9 10 Sudoeste 28 Oeste 0 -- -- 25
2017-09-05 16:00:00 31 10 Oeste 30 Oeste 0 -- -- 28
2017-09-05 15:00:00 30.4 14 Oeste 27 Oeste 0 -- -- 30
2017-09-05 14:00:00 28.8 11 Noroeste 23 Oeste 0 -- -- 36
2017-09-05 13:00:00 27.5 11 Noroeste 19 Oeste 0 -- -- 40
2017-09-05 12:00:00 25.4 4 Sudoeste 10 Oeste 0 -- -- 49
2017-09-05 11:00:00 23.3 4 Este 12 Sur 0 -- -- 57
2017-09-05 10:00:00 20 3 Sudeste 8 Este 0 -- -- 72
2017-09-05 09:00:00 15.8 2 Sudeste 6 Sudeste 0 -- -- 87
2017-09-05 08:00:00 14.1 4 Este 8 Sudeste 0 -- -- 89
2017-09-05 07:00:00 15.1 6 Sudoeste 11 Oeste 0 -- -- 88
2017-09-05 06:00:00 15.1 9 Oeste 13 Oeste 0 -- -- 88
2017-09-05 05:00:00 13.5 3 Sudoeste 8 Sur 0 -- -- 81
2017-09-05 04:00:00 13.4 4 Sur 8 Sur 0 -- -- 77
2017-09-05 03:00:00 13.7 5 Sur 8 Sur 0 -- -- 73
2017-09-05 02:00:00 14.4 5 Sudeste 10 Sur 0 -- -- 70
2017-09-05 01:00:00 15.3 6 Sur 10 Sur 0 -- -- 66
2017-09-05 00:00:00 17 4 Sur 5 Sur 0 -- -- 61
2017-09-04 23:00:00 19.2 4 Sudoeste 8 Sur 0 -- -- 55
2017-09-04 22:00:00 21.7 5 Sur 14 Este 0 -- -- 49
2017-09-04 21:00:00 25.2 11 Este 18 Este 0 -- -- 42
2017-09-04 20:00:00 27.8 4 Norte 11 Nordeste 0 -- -- 36
2017-09-04 19:00:00 28.3 6 Nordeste 20 Nordeste 0 -- -- 36
2017-09-04 18:00:00 28 4 Norte 15 Noroeste 0 -- -- 36
2017-09-04 17:00:00 27.6 8 Norte 20 Nordeste 0 -- -- 37
2017-09-04 16:00:00 26.6 5 Noroeste 21 Noroeste 0 -- -- 38
2017-09-04 15:00:00 26 6 Norte 19 Norte 0 -- -- 40
2017-09-04 14:00:00 24.6 8 Sudeste 17 Nordeste 0 -- -- 45
2017-09-04 13:00:00 22.7 4 Noroeste 13 Norte 0 -- -- 51
2017-09-04 12:00:00 20.9 5 Norte 14 Oeste 0 -- -- 61
2017-09-04 11:00:00 18.8 9 Noroeste 23 Noroeste 0 -- -- 69
2017-09-04 10:00:00 17.1 12 Oeste 21 Oeste 0 -- -- 75
2017-09-04 09:00:00 14.1 8 Sudoeste 12 Sudoeste 0 -- -- 88
2017-09-04 08:00:00 12.4 6 Sudoeste 14 Sur 0 -- -- 88
2017-09-04 07:00:00 13.1 8 Sur 9 Sudoeste 0 -- -- 85
2017-09-04 06:00:00 14.5 5 Sudoeste 14 Oeste 0 -- -- 81
2017-09-04 05:00:00 15.4 7 Oeste 20 Oeste 0 -- -- 78
2017-09-04 04:00:00 15.5 9 Oeste 21 Oeste 0 -- -- 77
2017-09-04 03:00:00 16.1 8 Sudoeste 21 Oeste 0 -- -- 73
2017-09-04 02:00:00 16.7 9 Sudoeste 18 Oeste 0 -- -- 65
2017-09-04 01:00:00 18.1 6 Sudoeste 22 Oeste 0 -- -- 49
2017-09-04 00:00:00 19.6 7 Sudoeste 21 Oeste 0 -- -- 40
2017-09-03 23:00:00 20.7 11 Oeste 20 Oeste 0 -- -- 34
2017-09-03 22:00:00 22.8 10 Oeste 25 Oeste 0 -- -- 27
2017-09-03 21:00:00 25.6 13 Oeste 33 Noroeste 0 -- -- 20
2017-09-03 20:00:00 28.2 17 Oeste 37 Oeste 0 -- -- 18
2017-09-03 19:00:00 29.4 22 Oeste 37 Oeste 0 -- -- 19
2017-09-03 18:00:00 29.9 19 Oeste 40 Oeste 0 -- -- 17
2017-09-03 17:00:00 30.2 18 Oeste 36 Sudoeste 0 -- -- 14
2017-09-03 16:00:00 30 18 Oeste 33 Oeste 0 -- -- 16
2017-09-03 15:00:00 29.1 17 Oeste 34 Sudoeste 0 -- -- 15
2017-09-03 14:00:00 28.4 21 Oeste 32 Oeste 0 -- -- 17
2017-09-03 13:00:00 27.3 19 Oeste 30 Oeste 0 -- -- 21
2017-09-03 12:00:00 25.8 14 Oeste 28 Oeste 0 -- -- 25
2017-09-03 11:00:00 23.1 10 Oeste 15 Oeste 0 -- -- 30
2017-09-03 10:00:00 18.3 5 Sudoeste 8 Sudoeste 0 -- -- 43
2017-09-03 09:00:00 12.6 4 Sur 6 Sur 0 -- -- 60
2017-09-03 08:00:00 12.5 3 Sur 5 Sudeste 0 -- -- 64
2017-09-03 07:00:00 12.6 3 Sur 6 Sur 0 -- -- 61
2017-09-03 06:00:00 11.7 4 Sur 6 Sur 0 -- -- 61
2017-09-03 05:00:00 11.4 4 Sur 7 Sur 0 -- -- 60
2017-09-03 04:00:00 10.4 0 Calma 5 Sur 0 -- -- 62
2017-09-03 03:00:00 10.5 5 Sur 10 Sur 0 -- -- 59
2017-09-03 02:00:00 11.1 3 Sur 8 Sur 0 -- -- 56
2017-09-03 01:00:00 12.2 5 Sur 9 Sur 0 -- -- 51
2017-09-03 00:00:00 13.4 0 Calma 9 Sur 0 -- -- 46
2017-09-02 23:00:00 15.3 3 Sur 9 Noroeste 0 -- -- 43
2017-09-02 22:00:00 19 5 Sur 8 Sur 0 -- -- 33
2017-09-02 21:00:00 22.8 6 Este 9 Nordeste 0 -- -- 28
2017-09-02 20:00:00 25.4 5 Nordeste 9 Nordeste 0 -- -- 24
2017-09-02 19:00:00 26.9 8 Noroeste 15 Norte 0 -- -- 19
2017-09-02 18:00:00 26.8 5 Este 12 Este 0 -- -- 19
2017-09-02 17:00:00 25.7 5 Nordeste 12 Nordeste 0 -- -- 21
2017-09-02 16:00:00 25.2 6 Este 19 Este 0 -- -- 24
2017-09-02 15:00:00 23.4 9 Este 23 Nordeste 0 -- -- 27
2017-09-02 14:00:00 22.1 14 Este 26 Este 0 -- -- 36
2017-09-02 13:00:00 20.1 19 Este 30 Este 0 -- -- 43
2017-09-02 12:00:00 18.2 19 Este 32 Este 0 -- -- 51
2017-09-02 11:00:00 15.7 21 Este 32 Este 0 -- -- 58
2017-09-02 10:00:00 13.4 25 Este 34 Este 0 -- -- 66
2017-09-02 09:00:00 11 15 Este 27 Nordeste 0 -- -- 78
2017-09-02 08:00:00 9.1 10 Nordeste 18 Nordeste 0 -- -- 84
2017-09-02 07:00:00 9.6 7 Este 17 Este 0 -- -- 78
2017-09-02 06:00:00 10.4 13 Este 18 Este 0 -- -- 76
2017-09-02 05:00:00 11.3 13 Este 27 Este 0 -- -- 72
2017-09-02 04:00:00 12.2 17 Este 26 Este 0 -- -- 68
2017-09-02 03:00:00 12.9 15 Este 30 Este 0 -- -- 64
2017-09-02 02:00:00 13.9 19 Nordeste 34 Nordeste 0 -- -- 60
2017-09-02 01:00:00 15.4 22 Este 33 Nordeste 0 -- -- 54
2017-09-02 00:00:00 16.3 13 Este 22 Este 0 -- -- 49
2017-09-01 23:00:00 17.3 8 Nordeste 19 Nordeste 0 -- -- 46
2017-09-01 22:00:00 18.4 8 Norte 21 Norte 0 -- -- 45
2017-09-01 21:00:00 20.3 11 Norte 26 Norte 0 -- -- 40
2017-09-01 20:00:00 22.2 14 Norte 26 Nordeste 0 -- -- 36
2017-09-01 19:00:00 23.7 10 Nordeste 25 Norte 0 -- -- 33
2017-09-01 18:00:00 23.8 12 Norte 26 Noroeste 0 -- -- 33
2017-09-01 17:00:00 23.9 9 Norte 29 Noroeste 0 -- -- 33
2017-09-01 16:00:00 24 11 Nordeste 27 Norte 0 -- -- 35
2017-09-01 15:00:00 23.4 10 Nordeste 27 Nordeste 0 -- -- 38
2017-09-01 14:00:00 22.5 14 Nordeste 33 Este 0 -- -- 43
2017-09-01 13:00:00 21.4 16 Este 24 Nordeste 0 -- -- 49
2017-09-01 12:00:00 19.2 12 Nordeste 22 Este 0 -- -- 58
2017-09-01 11:00:00 16.5 13 Este 22 Este 0 -- -- 67
2017-09-01 10:00:00 14.3 14 Este 20 Nordeste 0 -- -- 74
2017-09-01 09:00:00 11.8 9 Nordeste 13 Este 0 -- -- 86
2017-09-01 08:00:00 9.6 3 Nordeste 9 Nordeste 0 -- -- 87
2017-09-01 07:00:00 10.9 3 Norte 9 Nordeste 0 -- -- 84
2017-09-01 06:00:00 11.8 4 Nordeste 10 Norte 0 -- -- 80
2017-09-01 05:00:00 12.6 6 Nordeste 14 Norte 0 -- -- 77
2017-09-01 04:00:00 13.5 5 Norte 21 Norte 0 -- -- 70
2017-09-01 03:00:00 13.5 0 Calma 12 Noroeste 0 -- -- 70
2017-09-01 02:00:00 15 9 Este 16 Este 0 -- -- 65
2017-09-01 01:00:00 15 2 Sur 6 Este 0 -- -- 66
2017-09-01 00:00:00 16.6 3 Este 11 Este 0 -- -- 60
2017-08-31 23:00:00 18.2 7 Este 14 Nordeste 0 -- -- 55
2017-08-31 22:00:00 19.3 5 Nordeste 19 Nordeste 0 -- -- 54
2017-08-31 21:00:00 21 9 Nordeste 23 Nordeste 0 -- -- 51
2017-08-31 20:00:00 23 11 Nordeste 23 Nordeste 0 -- -- 46
2017-08-31 19:00:00 24.2 9 Nordeste 22 Este 0 -- -- 45
2017-08-31 18:00:00 23.6 10 Norte 18 Norte 0 -- -- 46
2017-08-31 17:00:00 24.1 6 Nordeste 20 Este 0 -- -- 46
2017-08-31 16:00:00 23.9 10 Norte 24 Nordeste 0 -- -- 47
2017-08-31 15:00:00 23 9 Este 27 Este 0 -- -- 50
2017-08-31 14:00:00 22 12 Nordeste 22 Este 0 -- -- 55
2017-08-31 13:00:00 19.9 10 Nordeste 23 Este 0 -- -- 63
2017-08-31 12:00:00 17.2 16 Este 26 Este 0 -- -- 73
2017-08-31 11:00:00 16.3 15 Nordeste 24 Nordeste 0 -- -- 77
2017-08-31 10:00:00 15.5 14 Nordeste 23 Nordeste 0 -- -- 82
2017-08-31 09:00:00 14.6 13 Nordeste 24 Nordeste 0 -- -- 88
2017-08-31 08:00:00 14.8 14 Nordeste 19 Nordeste 0 -- -- 90
2017-08-31 07:00:00 14.2 6 Este 10 Nordeste 0 -- -- 88
2017-08-31 06:00:00 15.4 8 Este 17 Este 0 -- -- 86
2017-08-31 05:00:00 16.3 10 Este 16 Este 0 -- -- 83
2017-08-31 04:00:00 16 5 Nordeste 9 Nordeste 0 -- -- 87
2017-08-31 03:00:00 16.3 4 Nordeste 8 Nordeste 0 -- -- 84
2017-08-31 02:00:00 16.1 5 Norte 7 Norte 0 -- -- 83
2017-08-31 01:00:00 16.8 4 Norte 7 Nordeste 0 -- -- 80
2017-08-31 00:00:00 17 4 Nordeste 17 Norte 0 -- -- 79
2017-08-30 23:00:00 17.6 4 Norte 14 Oeste 0 -- -- 79
2017-08-30 22:00:00 19.3 12 Noroeste 24 Oeste 0 -- -- 66
2017-08-30 21:00:00 20.9 10 Noroeste 27 Oeste 0 -- -- 61
2017-08-30 20:00:00 22.4 16 Oeste 34 Oeste 0 -- -- 49
2017-08-30 19:00:00 23.8 17 Oeste 31 Sudoeste 0 -- -- 43
2017-08-30 18:00:00 24.7 13 Oeste 32 Oeste 0 -- -- 40
2017-08-30 17:00:00 25 16 Oeste 36 Oeste 0 -- -- 39
2017-08-30 16:00:00 25.1 12 Sudoeste 30 Oeste 0 -- -- 39
2017-08-30 15:00:00 23.9 17 Oeste 32 Oeste 0 -- -- 41
2017-08-30 14:00:00 24.1 17 Sudoeste 30 Oeste 0 -- -- 41
2017-08-30 13:00:00 22.8 16 Sudoeste 35 Oeste 0 -- -- 42
2017-08-30 12:00:00 21.2 17 Oeste 30 Oeste 0 -- -- 52
2017-08-30 11:00:00 19.6 10 Oeste 19 Oeste 0 -- -- 62
2017-08-30 10:00:00 16 3 Sudeste 7 Sur 0 -- -- 77
2017-08-30 09:00:00 11.7 3 Sur 7 Norte 0 -- -- 90
2017-08-30 08:00:00 9.8 4 Oeste 9 Noroeste 0 -- -- 92
2017-08-30 07:00:00 9.8 3 Sur 6 Sur 0 -- -- 91
2017-08-30 06:00:00 10.4 4 Sur 7 Sudeste 0 -- -- 91
2017-08-30 05:00:00 10.6 3 Noroeste 8 Sur 0 -- -- 90
2017-08-30 04:00:00 11.2 4 Sur 9 Sur 0 -- -- 89
2017-08-30 03:00:00 11.7 9 Sur 12 Sur 0 -- -- 90
2017-08-30 02:00:00 12.9 0 Calma 8 Sur 0 -- -- 86
2017-08-30 01:00:00 13.8 0 Calma 10 Sudoeste 0 -- -- 83
2017-08-30 00:00:00 14.5 5 Sur 7 Sur 0.2 -- -- 83
2017-08-29 23:00:00 15.1 5 Sur 8 Sudeste 0 -- -- 75
2017-08-29 22:00:00 16.7 3 Sur 12 Oeste 0 -- -- 67
2017-08-29 21:00:00 18.7 9 Oeste 19 Sur 0 -- -- 62
2017-08-29 20:00:00 21.5 11 Sur 31 Sudoeste 0 -- -- 49
2017-08-29 19:00:00 20.9 21 Sur 33 Sur 0 -- -- 53
2017-08-29 18:00:00 19.7 13 Sudoeste 24 Sur 0 -- -- 61
2017-08-29 17:00:00 21.7 13 Sudeste 21 Este 0 -- -- 52
2017-08-29 16:00:00 22.5 4 Noroeste 34 Noroeste 0 -- -- 44
2017-08-29 15:00:00 23.2 7 Norte 17 Oeste 0 -- -- 43
2017-08-29 14:00:00 22.3 10 Noroeste 22 Noroeste 0 -- -- 48
2017-08-29 13:00:00 21.2 7 Oeste 17 Oeste 0 -- -- 54
2017-08-29 12:00:00 19.9 6 Oeste 19 Oeste 0 -- -- 62
2017-08-29 11:00:00 18.4 9 Oeste 14 Oeste 0 -- -- 68
2017-08-29 10:00:00 16.2 3 Sudeste 8 Sur 0 -- -- 80
2017-08-29 09:00:00 12.6 0 Calma 5 Sur 0 -- -- 89
2017-08-29 08:00:00 11.5 4 Sur 8 Sur 0 -- -- 90
2017-08-29 07:00:00 11.8 3 Sur 5 Sudeste 0 -- -- 90
2017-08-29 06:00:00 12.6 3 Este 7 Sur 0 -- -- 86
2017-08-29 05:00:00 13.8 3 Nordeste 11 Sur 0 -- -- 82
2017-08-29 04:00:00 14.3 4 Oeste 19 Sur 0 -- -- 80
2017-08-29 03:00:00 14.6 8 Sur 13 Sur 0 -- -- 85
2017-08-29 02:00:00 14.8 4 Sudoeste 14 Sur 0 -- -- 87
2017-08-29 01:00:00 15.2 10 Sur 14 Sur 0 -- -- 86
2017-08-29 00:00:00 16.2 0 Calma 10 Este 0 -- -- 79
2017-08-28 23:00:00 17.3 6 Nordeste 18 Nordeste 0 -- -- 75
2017-08-28 22:00:00 17.9 6 Norte 19 Norte 0 -- -- 62
2017-08-28 21:00:00 20.3 12 Nordeste 22 Norte 0 -- -- 57
2017-08-28 20:00:00 23.1 13 Sudoeste 28 Sur 0 -- -- 44
2017-08-28 19:00:00 23.6 18 Sudoeste 27 Sudoeste 0 -- -- 42
2017-08-28 18:00:00 24.3 21 Sudoeste 30 Sur 0 -- -- 38
2017-08-28 17:00:00 25.4 14 Sudoeste 23 Sudoeste 0 -- -- 37
2017-08-28 16:00:00 25.4 6 Nordeste 17 Nordeste 0 -- -- 39
2017-08-28 15:00:00 25.4 6 Noroeste 24 Este 0 -- -- 38
2017-08-28 14:00:00 25.3 10 Oeste 19 Oeste 0 -- -- 39
2017-08-28 13:00:00 24.4 10 Oeste 21 Oeste 0 -- -- 43
2017-08-28 12:00:00 23.4 7 Oeste 19 Sudoeste 0 -- -- 46
2017-08-28 11:00:00 22 6 Sur 13 Sur 0 -- -- 50
2017-08-28 10:00:00 19.3 5 Sur 9 Sudoeste 0 -- -- 63
2017-08-28 09:00:00 15.4 2 Sudeste 7 Sudeste 0 -- -- 88
2017-08-28 08:00:00 14.7 3 Sudeste 7 Este 0 -- -- 89
2017-08-28 07:00:00 15.7 3 Sudeste 15 Este 0 -- -- 89
2017-08-28 06:00:00 15.9 8 Este 14 Este 0 -- -- 90
2017-08-28 05:00:00 15.9 4 Sudeste 11 Este 0 -- -- 91
2017-08-28 04:00:00 16 4 Nordeste 15 Este 0.2 -- -- 91
2017-08-28 03:00:00 16.2 5 Nordeste 14 Este 0.2 -- -- 89
2017-08-28 02:00:00 16.7 3 Sudoeste 28 Este 0 -- -- 82
2017-08-28 01:00:00 17.3 13 Este 20 Este 0 -- -- 76
2017-08-28 00:00:00 18.7 8 Este 25 Sudeste 0 -- -- 70
2017-08-27 23:00:00 19.2 6 Sudeste 39 Este 0 -- -- 67
2017-08-27 22:00:00 20.7 15 Este 26 Este 0 -- -- 66
2017-08-27 21:00:00 24.1 9 Sur 30 Sur 0 -- -- 51
2017-08-27 20:00:00 25.5 22 Sur 39 Sur 0 -- -- 46
2017-08-27 19:00:00 25.7 12 Sur 36 Sur 0 -- -- 46
2017-08-27 18:00:00 25 22 Sur 40 Sur 0 -- -- 49
2017-08-27 17:00:00 27.4 27 Sur 43 Sudoeste 0 -- -- 39
2017-08-27 16:00:00 27.7 30 Sur 48 Sudoeste 0 -- -- 39
2017-08-27 15:00:00 27.7 26 Sur 41 Sudeste 0 -- -- 40
2017-08-27 14:00:00 25.8 20 Este 46 Este 0 -- -- 50
2017-08-27 13:00:00 22.4 25 Este 42 Este 0 -- -- 68
2017-08-27 12:00:00 19.1 28 Este 48 Este 0 -- -- 75
2017-08-27 11:00:00 18.6 27 Este 39 Este 0 -- -- 78
2017-08-27 10:00:00 17.2 19 Este 37 Este 0.2 -- -- 83
2017-08-27 09:00:00 16.9 23 Este 36 Este 3 -- -- 86
2017-08-27 08:00:00 16.7 8 Este 20 Este 1.2 -- -- 89
2017-08-27 07:00:00 16.5 6 Sudoeste 19 Sudoeste 1 -- -- 90
2017-08-27 06:00:00 16.8 17 Sudoeste 36 Sudoeste 2.2 -- -- 84
2017-08-27 05:00:00 19.1 17 Oeste 27 Sudeste 0.4 -- -- 68
2017-08-27 04:00:00 21.3 8 Sudeste 19 Sudeste 0.2 -- -- 52
2017-08-27 03:00:00 17.4 5 Sur 10 Este 0 -- -- 54
2017-08-27 02:00:00 16.8 3 Sur 6 Sur 0 -- -- 53
2017-08-27 01:00:00 17.3 2 Sudoeste 6 Sudoeste 0 -- -- 53
2017-08-27 00:00:00 18.9 4 Sudeste 6 Sur 0 -- -- 47
2017-08-26 23:00:00 21.3 2 Sudoeste 9 Sudeste 0 -- -- 42
2017-08-26 22:00:00 23.5 5 Sur 23 Sudoeste 0 -- -- 38
2017-08-26 21:00:00 26 16 Sur 39 Sur 0 -- -- 33
2017-08-26 20:00:00 27.2 24 Sur 50 Sudoeste 0 -- -- 31
2017-08-26 19:00:00 28.9 37 Sur 53 Sur 0 -- -- 28
2017-08-26 18:00:00 29.3 33 Sur 52 Sudoeste 0 -- -- 28
2017-08-26 17:00:00 28.7 34 Sur 62 Sur 0 -- -- 29
2017-08-26 16:00:00 29.5 34 Sur 54 Sur 0 -- -- 27
2017-08-26 15:00:00 28.1 29 Sudoeste 44 Sur 0 -- -- 28
2017-08-26 14:00:00 27.4 21 Sur 44 Sudoeste 0 -- -- 29
2017-08-26 13:00:00 26.3 20 Sur 32 Sur 0 -- -- 27
2017-08-26 12:00:00 23.6 24 Sudoeste 37 Sudoeste 0 -- -- 32
2017-08-26 11:00:00 23.6 11 Oeste 30 Sudoeste 0 -- -- 27
2017-08-26 10:00:00 23.7 18 Sudoeste 34 Sudoeste 0 -- -- 23
2017-08-26 09:00:00 13.3 2 Sur 8 Sudoeste 0 -- -- 70
2017-08-26 08:00:00 10.6 3 Sudoeste 9 Sudoeste 0 -- -- 67
2017-08-26 07:00:00 11.5 5 Sur 8 Sudoeste 0 -- -- 62
2017-08-26 06:00:00 12.3 3 Sur 8 Sur 0 -- -- 56
2017-08-26 05:00:00 13.3 5 Sur 7 Sur 0 -- -- 48
2017-08-26 04:00:00 14.4 2 Sudoeste 5 Sur 0 -- -- 43
2017-08-26 03:00:00 14.4 2 Sur 8 Sur 0 -- -- 39
2017-08-26 02:00:00 14.4 6 Sur 9 Sudeste 0 -- -- 38
2017-08-26 01:00:00 14.7 6 Sur 9 Sur 0 -- -- 35
2017-08-26 00:00:00 16.3 3 Sur 9 Sur 0 -- -- 31
2017-08-25 23:00:00 18.8 5 Sudeste 8 Sur 0 -- -- 28
2017-08-25 22:00:00 22.8 4 Sudoeste 11 Sur 0 -- -- 22
2017-08-25 21:00:00 26.7 10 Sudoeste 26 Sudoeste 0 -- -- 17
2017-08-25 20:00:00 29.6 20 Sudoeste 28 Sudoeste 0 -- -- 15
2017-08-25 19:00:00 31.1 10 Oeste 27 Sudoeste 0 -- -- 12
2017-08-25 18:00:00 31.2 13 Oeste 26 Oeste 0 -- -- 13
2017-08-25 17:00:00 31.7 12 Oeste 27 Oeste 0 -- -- 13
2017-08-25 16:00:00 30.3 17 Oeste 35 Oeste 0 -- -- 16
2017-08-25 15:00:00 30 16 Oeste 26 Oeste 0 -- -- 20
2017-08-25 14:00:00 28.6 13 Oeste 37 Oeste 0 -- -- 22
2017-08-25 13:00:00 26.6 9 Oeste 21 Oeste 0 -- -- 25
2017-08-25 12:00:00 23.7 6 Norte 12 Norte 0 -- -- 34
2017-08-25 11:00:00 20.4 8 Noroeste 11 Noroeste 0 -- -- 44
2017-08-25 10:00:00 16.8 5 Noroeste 6 Norte 0 -- -- 56
2017-08-25 09:00:00 10.8 2 Sur 7 Sur 0 -- -- 71
2017-08-25 08:00:00 8.6 2 Sur 7 Sur 0 -- -- 72
2017-08-25 07:00:00 9.2 4 Sur 6 Sur 0 -- -- 68
2017-08-25 06:00:00 10.3 4 Sur 5 Sur 0 -- -- 63
2017-08-25 05:00:00 11.4 3 Sur 7 Sur 0 -- -- 60
2017-08-25 04:00:00 12.5 5 Sur 7 Sur 0 -- -- 55
2017-08-25 03:00:00 14.9 3 Sudeste 8 Sur 0 -- -- 49
2017-08-25 02:00:00 16.8 3 Sur 12 Sudoeste 0 -- -- 46
2017-08-25 01:00:00 18.2 9 Sudoeste 16 Sudoeste 0 -- -- 42
2017-08-25 00:00:00 17.2 6 Sur 10 Sur 0 -- -- 42
2017-08-24 23:00:00 18.5 5 Sur 9 Sudoeste 0 -- -- 39
2017-08-24 22:00:00 21.8 3 Sudeste 8 Sudoeste 0 -- -- 34
2017-08-24 21:00:00 25.3 5 Oeste 21 Noroeste 0 -- -- 28
2017-08-24 20:00:00 27.5 13 Noroeste 24 Oeste 0 -- -- 25
2017-08-24 19:00:00 29 17 Oeste 31 Noroeste 0 -- -- 26
2017-08-24 18:00:00 29 14 Oeste 34 Oeste 0 -- -- 25
2017-08-24 17:00:00 29.8 19 Oeste 41 Sudoeste 0 -- -- 26
2017-08-24 16:00:00 29.5 17 Sudoeste 43 Oeste 0 -- -- 28
2017-08-24 15:00:00 28.7 18 Oeste 36 Oeste 0 -- -- 30
2017-08-24 14:00:00 27.8 14 Oeste 32 Oeste 0 -- -- 33
2017-08-24 13:00:00 26.3 16 Sudoeste 30 Sudoeste 0 -- -- 37
2017-08-24 12:00:00 24.4 14 Oeste 23 Oeste 0 -- -- 40
2017-08-24 11:00:00 21.8 12 Oeste 18 Oeste 0 -- -- 50
2017-08-24 10:00:00 19 9 Oeste 13 Oeste 0 -- -- 57
2017-08-24 09:00:00 14 3 Sur 6 Sudeste 0 -- -- 74
2017-08-24 08:00:00 11.4 0 Calma 4 Sudeste 0 -- -- 79
2017-08-24 07:00:00 12.3 0 Calma 8 Sur 0 -- -- 76
2017-08-24 06:00:00 13 4 Sur 9 Sur 0 -- -- 75
2017-08-24 05:00:00 14.8 4 Sur 6 Sur 0 -- -- 68
2017-08-24 04:00:00 16.5 3 Sur 10 Sudoeste 0 -- -- 65
2017-08-24 03:00:00 18.6 9 Sudoeste 13 Oeste 0 -- -- 59
2017-08-24 02:00:00 20.7 6 Sudoeste 17 Sudoeste 0 -- -- 54
2017-08-24 01:00:00 22.2 9 Sudoeste 17 Sudoeste 0 -- -- 49
2017-08-24 00:00:00 23.9 8 Sudoeste 19 Sudoeste 0 -- -- 44
2017-08-23 23:00:00 25.6 10 Sudoeste 17 Sudoeste 0 -- -- 33
2017-08-23 22:00:00 26.8 8 Sudoeste 19 Sudoeste 0 -- -- 26
2017-08-23 21:00:00 30.6 13 Sudoeste 26 Sur 0 -- -- 24
2017-08-23 20:00:00 32.9 17 Sudoeste 34 Sudoeste 0 -- -- 21
2017-08-23 19:00:00 33.7 20 Sudoeste 48 Sudoeste 0 -- -- 20
2017-08-23 18:00:00 33.6 6 Sudeste 30 Este 0 -- -- 23
2017-08-23 17:00:00 32.4 18 Sudeste 40 Sudeste 0 -- -- 22
2017-08-23 16:00:00 34.2 14 Oeste 28 Oeste 0 -- -- 18
2017-08-23 15:00:00 34.3 12 Sudoeste 32 Oeste 0 -- -- 23
2017-08-23 14:00:00 33.4 4 Noroeste 19 Sudoeste 0 -- -- 24
2017-08-23 13:00:00 31.3 5 Norte 12 Norte 0 -- -- 29
2017-08-23 12:00:00 28.8 3 Sudeste 15 Nordeste 0 -- -- 33
2017-08-23 11:00:00 25.7 8 Este 18 Este 0 -- -- 41
2017-08-23 10:00:00 22.3 13 Este 18 Este 0 -- -- 48
2017-08-23 09:00:00 16.7 2 Sudeste 6 Sur 0 -- -- 63
2017-08-23 08:00:00 13.9 6 Sur 8 Sudoeste 0 -- -- 68
2017-08-23 07:00:00 14.8 3 Sur 5 Sur 0 -- -- 63
2017-08-23 06:00:00 16 4 Sur 6 Sur 0 -- -- 60
2017-08-23 05:00:00 17.1 3 Sudoeste 6 Sur 0 -- -- 57
2017-08-23 04:00:00 18.2 0 Calma 6 Sur 0 -- -- 52
2017-08-23 03:00:00 18.6 2 Sur 7 Sudoeste 0 -- -- 49
2017-08-23 02:00:00 19.5 4 Sur 10 Sur 0 -- -- 44
2017-08-23 01:00:00 19.6 6 Sur 8 Sur 0 -- -- 40
2017-08-23 00:00:00 19.9 5 Sur 10 Sur 0 -- -- 38
2017-08-22 23:00:00 22 6 Sur 8 Sur 0 -- -- 33
2017-08-22 22:00:00 26.5 2 Sudeste 7 Oeste 0 -- -- 28
2017-08-22 21:00:00 31.3 5 Oeste 17 Noroeste 0 -- -- 22
2017-08-22 20:00:00 33.3 11 Noroeste 21 Oeste 0 -- -- 20
2017-08-22 19:00:00 34.1 10 Oeste 29 Sudoeste 0 -- -- 19
2017-08-22 18:00:00 34.4 8 Sudoeste 29 Oeste 0 -- -- 19
2017-08-22 17:00:00 34.5 12 Oeste 29 Oeste 0 -- -- 19
2017-08-22 16:00:00 34 18 Oeste 30 Oeste 0 -- -- 21
2017-08-22 15:00:00 33.4 15 Sudoeste 33 Oeste 0 -- -- 22
2017-08-22 14:00:00 32.1 13 Oeste 27 Oeste 0 -- -- 25
2017-08-22 13:00:00 31.6 14 Oeste 26 Oeste 0 -- -- 27
2017-08-22 12:00:00 29.3 14 Oeste 25 Oeste 0 -- -- 32
2017-08-22 11:00:00 26.6 9 Noroeste 15 Oeste 0 -- -- 38
2017-08-22 10:00:00 23.6 8 Noroeste 14 Oeste 0 -- -- 44
2017-08-22 09:00:00 18.3 3 Sur 6 Sur 0 -- -- 60
2017-08-22 08:00:00 16.4 3 Sur 8 Sur 0 -- -- 64
2017-08-22 07:00:00 17.1 4 Sudeste 7 Sudeste 0 -- -- 62
2017-08-22 06:00:00 18.2 0 Calma 6 Sudeste 0 -- -- 60
2017-08-22 05:00:00 19.6 4 Sudeste 5 Sur 0 -- -- 55
2017-08-22 04:00:00 20.6 4 Sudoeste 8 Sur 0 -- -- 53
2017-08-22 03:00:00 21.6 5 Sudoeste 9 Sur 0 -- -- 52
2017-08-22 02:00:00 22.7 6 Sudoeste 8 Sudoeste 0 -- -- 50
2017-08-22 01:00:00 24.5 5 Sudoeste 16 Oeste 0 -- -- 46
2017-08-22 00:00:00 25.9 9 Oeste 19 Sudoeste 0 -- -- 43